Time;durP1;ratioP1;P1;durP2;ratioP2;P2;SDS_P1;SDS_P2;PMS_P1;PMS_P2;Temp;Humidity;BMP_temperature;BMP_pressure;BME280_temperature;BME280_humidity;BME280_pressure;Samples;Min_cycle;Max_cycle;Signal;HPM_P1;HPM_P2
2023/01/12 00:08:54;;;;;;;0.63;0.20;;;1.10;99.90;;;;;;20978692;28;20033;-60
2023/01/12 00:18:55;;;;;;;1.30;0.20;;;1.10;99.90;;;;;;20987994;28;20032;-60
2023/01/12 00:28:57;;;;;;;0.40;0.20;;;0.90;99.90;;;;;;20969049;28;20094;-60
2023/01/12 00:38:58;;;;;;;1.85;0.20;;;0.80;99.90;;;;;;20935788;28;20025;-62
2023/01/12 00:49:00;;;;;;;0.32;0.10;;;0.70;99.90;;;;;;20964783;28;20032;-60
2023/01/12 00:59:02;;;;;;;0.20;0.10;;;0.50;99.90;;;;;;20985828;28;20049;-59
2023/01/12 01:09:05;;;;;;;0.75;0.10;;;0.40;99.90;;;;;;20942024;28;20386;-60
2023/01/12 01:19:06;;;;;;;0.30;0.10;;;0.20;99.90;;;;;;20917592;28;20036;-59
2023/01/12 01:29:08;;;;;;;0.57;0.00;;;0.00;99.90;;;;;;20966877;28;20044;-59
2023/01/12 01:39:09;;;;;;;0.05;0.00;;;-0.10;99.90;;;;;;20940347;28;20037;-59
2023/01/12 01:49:33;;;;;;;0.43;0.10;;;0.00;99.90;;;;;;20899798;28;20033;-59
2023/01/12 01:59:36;;;;;;;0.52;0.10;;;-0.20;99.90;;;;;;20891865;28;20041;-61
2023/01/12 02:09:38;;;;;;;0.30;0.10;;;-0.30;99.90;;;;;;20994346;28;20036;-59
2023/01/12 02:19:52;;;;;;;1.65;0.10;;;-0.40;99.90;;;;;;20970852;28;20036;-60
2023/01/12 02:30:28;;;;;;;1.17;0.00;;;-0.30;99.90;;;;;;20987366;28;20399;-60
2023/01/12 02:40:41;;;;;;;0.05;0.00;;;0.10;99.90;;;;;;20941583;28;20033;-60
2023/01/12 02:50:51;;;;;;;0.50;0.10;;;0.40;99.90;;;;;;20941229;28;20032;-59
2023/01/12 03:00:55;;;;;;;0.27;0.10;;;0.30;99.90;;;;;;20903977;28;20043;-60
2023/01/12 03:11:03;;;;;;;0.17;0.00;;;0.20;99.90;;;;;;20993318;28;20028;-59
2023/01/12 03:21:11;;;;;;;0.20;0.00;;;0.10;99.90;;;;;;20992747;28;20032;-59
2023/01/12 03:31:14;;;;;;;0.03;0.00;;;0.00;99.90;;;;;;20954736;28;20471;-60
2023/01/12 03:41:27;;;;;;;0.10;0.00;;;0.10;99.90;;;;;;20908368;28;20025;-59
2023/01/12 03:51:36;;;;;;;0.10;0.00;;;0.40;99.90;;;;;;20907508;28;20024;-59
2023/01/12 04:01:38;;;;;;;0.20;0.00;;;0.60;99.90;;;;;;20906678;28;20068;-59
2023/01/12 04:32:21;;;;;;;0.17;0.00;;;0.30;99.90;;;;;;20904917;28;20040;-59
2023/01/12 04:52:42;;;;;;;0.03;0.00;;;0.40;99.90;;;;;;20966344;28;20043;-60
2023/01/12 05:02:44;;;;;;;0.20;0.10;;;0.30;99.90;;;;;;20984998;28;20048;-60
2023/01/12 05:12:45;;;;;;;1.60;0.10;;;0.20;99.90;;;;;;20985730;28;20040;-60
2023/01/12 05:22:49;;;;;;;0.00;0.00;;;0.10;99.90;;;;;;20975685;28;20507;-60
2023/01/12 05:32:51;;;;;;;0.10;0.00;;;0.00;99.90;;;;;;20993800;28;20052;-60
2023/01/12 05:53:13;;;;;;;0.00;0.00;;;-0.40;99.90;;;;;;20968862;28;20037;-60
2023/01/12 06:03:14;;;;;;;0.20;0.10;;;-0.40;99.90;;;;;;20941369;28;20506;-59
2023/01/12 06:23:36;;;;;;;0.00;0.00;;;-0.30;99.90;;;;;;20997182;28;20032;-59
2023/01/12 06:33:38;;;;;;;0.30;0.00;;;-0.40;99.90;;;;;;20968692;28;20120;-59
2023/01/12 06:43:40;;;;;;;0.00;0.00;;;-0.30;99.90;;;;;;20914595;28;20040;-59
2023/01/12 06:53:41;;;;;;;0.10;0.00;;;-0.30;99.90;;;;;;20894742;28;20478;-60
2023/01/12 07:03:43;;;;;;;0.10;0.00;;;-0.10;99.90;;;;;;20915400;28;20041;-60
2023/01/12 07:13:45;;;;;;;0.40;0.10;;;0.10;99.90;;;;;;20886105;28;20556;-59
2023/01/12 07:23:46;;;;;;;0.32;0.10;;;0.30;99.90;;;;;;20946997;28;20029;-59
2023/01/12 07:33:52;;;;;;;0.17;0.10;;;0.40;99.90;;;;;;20888252;28;20029;-59
2023/01/12 07:43:53;;;;;;;0.20;0.00;;;0.60;99.90;;;;;;20945792;28;20033;-59
2023/01/12 07:53:55;;;;;;;0.10;0.00;;;0.80;99.90;;;;;;20954330;28;20092;-58
2023/01/12 08:03:57;;;;;;;0.00;0.00;;;1.20;99.90;;;;;;20942412;28;20040;-60
2023/01/12 08:14:00;;;;;;;0.00;0.00;;;1.60;99.90;;;;;;20989358;28;20029;-60
2023/01/12 08:24:05;;;;;;;0.70;0.00;;;1.90;99.90;;;;;;20988413;28;20040;-60
2023/01/12 08:34:08;;;;;;;0.20;0.00;;;2.00;99.90;;;;;;20987426;28;20354;-59
2023/01/12 08:44:10;;;;;;;0.00;0.00;;;2.10;99.90;;;;;;20904887;28;20021;-59
2023/01/12 08:54:14;;;;;;;0.20;0.10;;;2.60;99.90;;;;;;20903605;28;20049;-60
2023/01/12 09:04:16;;;;;;;0.00;0.00;;;2.80;99.90;;;;;;20902410;28;20033;-59
2023/01/12 09:14:17;;;;;;;0.63;0.00;;;3.10;99.90;;;;;;20903241;28;20048;-59
2023/01/12 09:24:19;;;;;;;0.20;0.00;;;3.60;99.90;;;;;;20979022;28;20029;-59
2023/01/12 09:34:20;;;;;;;1.65;0.05;;;3.60;99.90;;;;;;20983042;28;20522;-60
2023/01/12 09:54:51;;;;;;;0.00;0.00;;;4.00;99.90;;;;;;20953363;28;20150;-59
2023/01/12 10:04:55;;;;;;;0.10;0.03;;;4.30;99.90;;;;;;20900694;28;20094;-59
2023/01/12 10:15:35;;;;;;;0.10;0.00;;;4.70;99.90;;;;;;20901689;28;20032;-59
2023/01/12 10:25:41;;;;;;;0.50;0.10;;;5.10;99.90;;;;;;20740870;28;20440;-59
2023/01/12 10:36:07;;;;;;;0.00;0.00;;;5.80;99.90;;;;;;20739577;28;20053;-59
2023/01/12 10:46:17;;;;;;;0.00;0.00;;;6.90;99.90;;;;;;20752173;28;20479;-59
2023/01/12 10:56:24;;;;;;;0.30;0.03;;;7.40;99.90;;;;;;20890426;28;20045;-59
2023/01/12 11:06:29;;;;;;;0.30;0.10;;;7.00;99.90;;;;;;20963935;28;20024;-59
2023/01/12 11:16:33;;;;;;;0.30;0.10;;;6.80;99.90;;;;;;20986185;28;20051;-58
2023/01/12 11:26:43;;;;;;;0.17;0.00;;;6.70;99.90;;;;;;20993303;28;20123;-59
2023/01/12 11:36:53;;;;;;;0.55;0.10;;;6.40;99.90;;;;;;20969053;28;20449;-59
2023/01/12 11:47:05;;;;;;;0.03;0.00;;;6.30;99.90;;;;;;20906581;28;20037;-62
2023/01/12 11:57:22;;;;;;;2.33;0.30;;;6.30;99.90;;;;;;20943075;28;20037;-63
2023/01/12 12:07:39;;;;;;;0.60;0.30;;;6.50;99.90;;;;;;20967754;28;20112;-63
2023/01/12 12:17:57;;;;;;;0.45;0.30;;;6.70;99.90;;;;;;20918273;28;20032;-63
2023/01/12 12:28:17;;;;;;;0.73;0.22;;;6.90;99.90;;;;;;20905541;28;20079;-59
2023/01/12 12:38:32;;;;;;;0.30;0.10;;;7.10;99.90;;;;;;20904009;28;20028;-60
2023/01/12 12:49:03;;;;;;;0.60;0.28;;;7.40;99.90;;;;;;20904142;28;20044;-61
2023/01/12 12:59:06;;;;;;;0.70;0.30;;;7.60;99.90;;;;;;20881251;28;20045;-61
2023/01/12 13:09:10;;;;;;;0.50;0.30;;;7.60;99.90;;;;;;20853535;28;20433;-61
2023/01/12 13:19:30;;;;;;;1.13;0.50;;;6.70;99.90;;;;;;20817197;28;20445;-60
2023/01/12 13:29:37;;;;;;;0.77;0.20;;;5.90;99.90;;;;;;20814680;28;20445;-61
2023/01/12 13:39:49;;;;;;;0.50;0.28;;;5.80;99.90;;;;;;20823952;28;20036;-61
2023/01/12 13:49:55;;;;;;;1.38;0.40;;;6.00;99.90;;;;;;20817956;28;20037;-61
2023/01/12 14:00:09;;;;;;;0.90;0.25;;;6.40;99.90;;;;;;20881595;28;20041;-61
2023/01/12 14:10:14;;;;;;;1.05;0.40;;;6.40;99.90;;;;;;20873718;28;20056;-62
2023/01/12 14:20:23;;;;;;;1.70;0.73;;;6.20;99.90;;;;;;20934236;28;20037;-61
2023/01/12 14:30:27;;;;;;;1.85;0.88;;;6.10;99.90;;;;;;20911245;28;21136;-61
2023/01/12 14:40:32;;;;;;;1.02;0.20;;;5.80;99.90;;;;;;20910782;28;20103;-61
2023/01/12 14:50:35;;;;;;;0.30;0.20;;;5.70;99.90;;;;;;20949281;28;20401;-62
2023/01/12 15:00:42;;;;;;;0.50;0.10;;;5.90;99.90;;;;;;20933392;28;20059;-61
2023/01/12 15:10:58;;;;;;;0.70;0.10;;;6.00;99.90;;;;;;20943401;28;20029;-61
2023/01/12 15:31:38;;;;;;;0.10;0.00;;;4.80;99.90;;;;;;20624464;28;20046;-60
2023/01/12 15:52:00;;;;;;;0.30;0.10;;;4.20;99.90;;;;;;20613713;28;20093;-61
2023/01/12 16:02:03;;;;;;;0.00;0.00;;;3.70;99.90;;;;;;20750373;28;20150;-60
2023/01/12 16:12:06;;;;;;;0.55;0.10;;;3.20;99.90;;;;;;20902826;28;20034;-60
2023/01/12 16:22:19;;;;;;;0.20;0.00;;;2.80;99.90;;;;;;20912363;28;20048;-60
2023/01/12 16:32:23;;;;;;;0.20;0.10;;;2.50;99.90;;;;;;20904986;28;20102;-60
2023/01/12 16:42:25;;;;;;;1.42;0.10;;;2.10;99.90;;;;;;20904712;28;20025;-60
2023/01/12 16:52:27;;;;;;;0.20;0.10;;;1.90;99.90;;;;;;20903733;28;20087;-60
2023/01/12 17:02:30;;;;;;;0.10;0.00;;;1.90;99.90;;;;;;20902715;28;20041;-60
2023/01/12 17:12:31;;;;;;;0.20;0.10;;;1.80;99.90;;;;;;20903227;28;20460;-60
2023/01/12 17:22:33;;;;;;;0.22;0.05;;;1.70;99.90;;;;;;20902166;28;20040;-60
2023/01/12 17:32:35;;;;;;;0.65;0.20;;;1.70;99.90;;;;;;20938117;28;20473;-60
2023/01/12 17:52:56;;;;;;;0.93;0.20;;;1.80;99.90;;;;;;20977625;28;20443;-60
2023/01/12 18:02:59;;;;;;;1.15;0.60;;;1.90;99.90;;;;;;20975203;28;20426;-60
2023/01/12 18:13:00;;;;;;;2.30;0.80;;;1.90;99.90;;;;;;20916056;28;20083;-60
2023/01/12 18:23:02;;;;;;;0.73;0.40;;;1.80;99.90;;;;;;20914356;28;20402;-60
2023/01/12 18:33:04;;;;;;;2.47;0.50;;;1.60;99.90;;;;;;20939036;28;20037;-60
2023/01/12 18:43:06;;;;;;;0.68;0.40;;;1.20;99.90;;;;;;20919885;28;20441;-60
2023/01/12 18:53:29;;;;;;;0.77;0.38;;;1.10;99.90;;;;;;20912825;28;20025;-60
2023/01/12 19:03:36;;;;;;;0.70;0.30;;;1.20;99.90;;;;;;20911633;28;20045;-60
2023/01/12 19:34:19;;;;;;;0.70;0.23;;;1.50;99.90;;;;;;20962013;28;20029;-60
2023/01/12 19:44:20;;;;;;;0.60;0.30;;;1.70;99.90;;;;;;20909259;28;20633;-60
2023/01/12 19:54:22;;;;;;;0.73;0.20;;;1.80;99.90;;;;;;20984632;28;20389;-60
2023/01/12 20:04:24;;;;;;;1.25;0.20;;;2.00;99.90;;;;;;20990335;28;20434;-60
2023/01/12 20:14:26;;;;;;;0.75;0.10;;;2.10;99.90;;;;;;20986070;28;20087;-60
2023/01/12 20:24:29;;;;;;;0.50;0.20;;;2.00;99.90;;;;;;20905635;28;20033;-60
2023/01/12 20:34:31;;;;;;;0.50;0.20;;;1.80;99.90;;;;;;20904971;28;20630;-60
2023/01/12 20:44:32;;;;;;;0.38;0.10;;;1.70;99.90;;;;;;20904474;28;20437;-60
2023/01/12 20:54:34;;;;;;;0.10;0.08;;;1.70;99.90;;;;;;20955658;28;20048;-60
2023/01/12 21:04:36;;;;;;;1.02;0.20;;;1.70;99.90;;;;;;20902585;28;20312;-60
2023/01/12 21:14:38;;;;;;;0.70;0.15;;;1.80;99.90;;;;;;20885601;28;20040;-60
2023/01/12 21:24:40;;;;;;;0.43;0.28;;;1.90;99.90;;;;;;20902472;28;20048;-60
2023/01/12 21:34:42;;;;;;;0.20;0.10;;;2.20;99.90;;;;;;20902199;28;20432;-60
2023/01/12 21:44:44;;;;;;;0.82;0.25;;;2.10;99.90;;;;;;20901852;28;20021;-60
2023/01/12 21:54:46;;;;;;;0.88;0.10;;;2.10;99.90;;;;;;20902196;28;20041;-59
2023/01/12 22:04:48;;;;;;;0.82;0.15;;;2.30;99.90;;;;;;20900401;28;20048;-60
2023/01/12 22:14:49;;;;;;;0.57;0.13;;;2.30;99.90;;;;;;20902296;28;20033;-60
2023/01/12 22:24:51;;;;;;;0.57;0.10;;;2.60;99.90;;;;;;20913239;28;20033;-60
2023/01/12 22:34:54;;;;;;;0.52;0.20;;;2.60;99.90;;;;;;20889215;28;20084;-60
2023/01/12 22:44:56;;;;;;;0.55;0.10;;;2.50;99.90;;;;;;20831681;28;20037;-60
2023/01/12 22:54:57;;;;;;;0.25;0.10;;;2.30;99.90;;;;;;20890519;28;20048;-60
2023/01/12 23:05:00;;;;;;;0.20;0.10;;;2.20;99.90;;;;;;20910572;28;20054;-60
2023/01/12 23:15:02;;;;;;;0.38;0.10;;;2.20;99.90;;;;;;20913844;28;20440;-60
2023/01/12 23:25:04;;;;;;;0.50;0.20;;;2.20;99.90;;;;;;20910259;28;20401;-60
2023/01/12 23:35:06;;;;;;;0.40;0.20;;;2.30;99.90;;;;;;20910018;28;20040;-60
2023/01/12 23:45:08;;;;;;;0.22;0.10;;;2.20;99.90;;;;;;20891404;28;20449;-60
2023/01/12 23:55:10;;;;;;;0.28;0.20;;;2.20;99.90;;;;;;20908562;28;20099;-60
